Terminal Aerodrome Forecast
Issued by NWS

Home | Current Version | Previous Version | Text Only | Print | Product List | Glossary On
Versions: 1 2 3 4 5 6 7 8 9 10 11 12 13 14 15 16 17 18 19 20 21 22 23 24 25 26 27 28 29 30 31 32 33 34 35 36 37 38 39 40 41 42 43 44 45
000
FTUS43 KDTX 221700
TAFYIP
TAF
KYIP 221738Z 2218/2318 14005KT P6SM SCT028 BKN040
     FM230100 08005KT P6SM SCT050 BKN120 OVC250
     FM230600 05005KT 4SM BR FEW015 SCT120
     FM230900 05003KT 2SM BR SCT006
     FM231300 06004KT 5SM HZ SCT150
     FM231500 07006KT P6SM SCT040=

USA.gov is the U.S. government's official web portal to all federal, state and local government web resources and services.